createdAt,value
2019-05-16T00:00:59.591Z,101881.28
2019-05-16T00:03:29.741Z,101876.95
2019-05-16T00:06:00.762Z,101880.48
2019-05-16T00:08:30.769Z,101868.72
2019-05-16T00:11:00.750Z,101865.28
2019-05-16T00:13:30.901Z,101860.09
2019-05-16T00:16:00.919Z,101858.39
2019-05-16T00:18:31.137Z,101857.95
2019-05-16T00:21:01.153Z,101857.05
2019-05-16T00:23:32.801Z,101857.58
2019-05-16T00:26:02.783Z,101851.08
2019-05-16T00:28:32.859Z,101847.95
2019-05-16T00:31:02.849Z,101841.04
2019-05-16T00:33:32.855Z,101843.22
2019-05-16T00:36:05.908Z,101845.00
2019-05-16T00:38:34.611Z,101847.62
2019-05-16T00:41:08.340Z,101844.97
2019-05-16T00:43:38.011Z,101841.52
2019-05-16T00:46:10.114Z,101834.59
2019-05-16T00:48:39.911Z,101836.34
2019-05-16T00:51:10.351Z,101831.93
2019-05-16T00:53:40.419Z,101829.39
2019-05-16T00:56:10.941Z,101822.88
2019-05-16T00:58:41.770Z,101821.62
2019-05-16T01:01:12.145Z,101822.09
2019-05-16T01:03:43.678Z,101822.59
2019-05-16T01:06:18.610Z,101818.67
2019-05-16T01:08:48.739Z,101813.08
2019-05-16T01:11:18.935Z,101802.72
2019-05-16T01:13:50.603Z,101804.47
2019-05-16T01:16:20.606Z,101807.02
2019-05-16T01:18:50.680Z,101802.72
2019-05-16T01:21:20.688Z,101800.56
2019-05-16T01:23:50.674Z,101794.09
2019-05-16T01:26:21.325Z,101794.93
2019-05-16T01:28:51.728Z,101796.31
2019-05-16T01:31:22.171Z,101795.82
2019-05-16T01:33:54.876Z,101791.94
2019-05-16T01:36:34.271Z,101785.41
2019-05-16T01:38:58.471Z,101789.33
2019-05-16T01:41:28.562Z,101786.73
2019-05-16T01:43:58.622Z,101775.06
2019-05-16T01:46:28.638Z,101770.30
2019-05-16T01:48:58.644Z,101773.29
2019-05-16T01:51:28.898Z,101782.81
2019-05-16T01:53:58.936Z,101777.10
2019-05-16T01:56:29.058Z,101774.48
2019-05-16T01:58:59.122Z,101772.31
2019-05-16T02:01:29.181Z,101770.55
2019-05-16T02:03:59.185Z,101763.58
2019-05-16T02:06:29.262Z,101759.25
2019-05-16T02:09:00.978Z,101763.56
2019-05-16T02:11:32.256Z,101754.36
2019-05-16T02:14:02.384Z,101751.84
2019-05-16T02:16:32.458Z,101752.26
2019-05-16T02:19:02.464Z,101743.11
2019-05-16T02:21:32.455Z,101745.28
2019-05-16T02:24:02.529Z,101747.86
2019-05-16T02:26:32.518Z,101741.80
2019-05-16T02:29:02.524Z,101734.37
2019-05-16T02:31:32.539Z,101730.02
2019-05-16T02:34:04.769Z,101732.60
2019-05-16T02:36:34.547Z,101737.81
2019-05-16T02:39:10.916Z,101734.81
2019-05-16T02:41:45.609Z,101734.81
2019-05-16T02:44:12.151Z,101733.06
2019-05-16T02:46:42.432Z,101728.66
2019-05-16T02:49:12.431Z,101730.91
2019-05-16T02:51:44.017Z,101726.52
2019-05-16T02:54:14.043Z,101729.59
2019-05-16T02:56:44.026Z,101725.20
2019-05-16T02:59:14.030Z,101726.89
2019-05-16T03:01:44.022Z,101720.84
2019-05-16T03:04:14.184Z,101719.52
2019-05-16T03:06:44.818Z,101712.64
2019-05-16T03:09:15.132Z,101708.20
2019-05-16T03:11:46.146Z,101716.86
2019-05-16T03:14:21.217Z,101708.72
2019-05-16T03:16:50.779Z,101710.00
2019-05-16T03:19:22.948Z,101704.30
2019-05-16T03:21:54.881Z,101701.22
2019-05-16T03:24:24.888Z,101699.90
2019-05-16T03:26:54.894Z,101697.25
2019-05-16T03:29:26.023Z,101695.54
2019-05-16T03:31:56.090Z,101693.78
2019-05-16T03:34:26.647Z,101681.73
2019-05-16T03:36:56.774Z,101686.91
2019-05-16T03:39:26.848Z,101687.73
2019-05-16T03:41:56.849Z,101669.92
2019-05-16T03:44:26.865Z,101674.20
2019-05-16T03:46:56.858Z,101682.10
2019-05-16T03:49:30.925Z,101673.83
2019-05-16T03:52:01.418Z,101681.28
2019-05-16T03:54:31.398Z,101679.41
2019-05-16T03:57:01.780Z,101678.56
2019-05-16T03:59:31.750Z,101680.73
2019-05-16T04:02:04.143Z,101676.45
2019-05-16T04:04:36.209Z,101674.65
2019-05-16T04:07:10.803Z,101668.58
2019-05-16T04:09:41.647Z,101663.41
2019-05-16T04:12:11.650Z,101665.97
2019-05-16T04:14:41.638Z,101663.81
2019-05-16T04:17:11.644Z,101663.28
2019-05-16T04:19:43.571Z,101661.61
2019-05-16T04:22:15.400Z,101659.41
2019-05-16T04:24:45.453Z,101664.63
2019-05-16T04:27:15.478Z,101661.17
2019-05-16T04:29:45.466Z,101654.56
2019-05-16T04:32:15.477Z,101658.81
2019-05-16T04:34:46.989Z,101650.11
2019-05-16T04:37:16.997Z,101654.47
2019-05-16T04:39:46.988Z,101656.19
2019-05-16T04:42:16.991Z,101660.09
2019-05-16T04:44:47.008Z,101661.32
2019-05-16T04:47:17.067Z,101657.12
2019-05-16T04:49:51.969Z,101658.88
2019-05-16T04:52:25.891Z,101649.21
2019-05-16T04:54:55.921Z,101657.64
2019-05-16T04:57:25.896Z,101648.06
2019-05-16T04:59:55.904Z,101652.36
2019-05-16T05:02:25.914Z,101647.23
2019-05-16T05:04:56.358Z,101647.66
2019-05-16T05:07:30.993Z,101640.53
2019-05-16T05:10:00.525Z,101642.42
2019-05-16T05:12:31.743Z,101640.23
2019-05-16T05:15:01.883Z,101644.07
2019-05-16T05:17:31.893Z,101644.59
2019-05-16T05:20:01.965Z,101646.02
2019-05-16T05:22:32.146Z,101639.97
2019-05-16T05:25:02.209Z,101642.92
2019-05-16T05:27:33.289Z,101640.37
2019-05-16T05:30:03.554Z,101642.16
2019-05-16T05:32:33.616Z,101643.45
2019-05-16T05:35:05.351Z,101648.22
2019-05-16T05:37:35.315Z,101640.94
2019-05-16T05:40:10.748Z,101641.87
2019-05-16T05:42:41.465Z,101648.44
2019-05-16T05:45:11.702Z,101652.42
2019-05-16T05:47:41.785Z,101637.30
2019-05-16T05:50:12.434Z,101639.49
2019-05-16T05:52:42.426Z,101642.12
2019-05-16T05:55:12.980Z,101650.80
2019-05-16T05:57:43.010Z,101645.62
2019-05-16T06:00:13.534Z,101641.27
2019-05-16T06:02:43.539Z,101640.41
2019-05-16T06:05:13.764Z,101637.31
2019-05-16T06:07:43.778Z,101639.01
2019-05-16T06:10:14.104Z,101635.39
2019-05-16T06:12:44.188Z,101631.08
2019-05-16T06:15:14.608Z,101635.72
2019-05-16T06:17:44.636Z,101634.38
2019-05-16T06:20:15.078Z,101631.73
2019-05-16T06:22:45.127Z,101637.71
2019-05-16T06:25:15.379Z,101635.58
2019-05-16T06:27:45.929Z,101633.80
2019-05-16T06:30:16.276Z,101627.73
2019-05-16T06:32:46.257Z,101625.21
2019-05-16T06:35:17.482Z,101623.69
2019-05-16T06:37:51.197Z,101615.34
2019-05-16T06:40:21.102Z,101614.10
2019-05-16T06:42:53.508Z,101612.56
2019-05-16T06:45:23.645Z,101615.12
2019-05-16T06:47:53.714Z,101602.95
2019-05-16T06:50:23.751Z,101604.20
2019-05-16T06:52:53.815Z,101600.83
2019-05-16T06:55:23.824Z,101603.52
2019-05-16T06:57:57.263Z,101598.94
2019-05-16T07:00:29.895Z,101602.78
2019-05-16T07:03:00.405Z,101591.25
2019-05-16T07:05:30.506Z,101596.66
2019-05-16T07:08:00.528Z,101597.06
2019-05-16T07:10:30.735Z,101597.20
2019-05-16T07:13:00.895Z,101599.33
2019-05-16T07:15:32.176Z,101598.43
2019-05-16T07:18:02.168Z,101600.22
2019-05-16T07:20:32.494Z,101592.84
2019-05-16T07:23:04.256Z,101594.60
2019-05-16T07:25:34.345Z,101580.52
2019-05-16T07:28:07.185Z,101580.11
2019-05-16T07:30:37.233Z,101580.54
2019-05-16T07:33:09.688Z,101575.70
2019-05-16T07:35:40.124Z,101579.51
2019-05-16T07:38:10.733Z,101576.91
2019-05-16T07:40:40.903Z,101572.10
2019-05-16T07:43:10.980Z,101566.08
2019-05-16T07:45:40.977Z,101571.05
2019-05-16T07:48:11.134Z,101564.95
2019-05-16T07:50:41.205Z,101558.43
2019-05-16T07:53:11.279Z,101561.39
2019-05-16T07:55:41.280Z,101559.97
2019-05-16T07:58:13.307Z,101561.21
2019-05-16T08:00:52.461Z,101555.67
2019-05-16T08:03:19.929Z,101551.55
2019-05-16T08:05:51.489Z,101548.87
2019-05-16T08:08:24.242Z,101546.55
2019-05-16T08:10:53.677Z,101546.32
2019-05-16T08:13:23.688Z,101543.52
2019-05-16T08:15:53.778Z,101539.77
2019-05-16T08:18:23.801Z,101534.80
2019-05-16T08:20:53.800Z,101528.23
2019-05-16T08:23:24.170Z,101528.66
2019-05-16T08:25:54.235Z,101527.23
2019-05-16T08:28:25.290Z,101527.67
2019-05-16T08:30:55.290Z,101522.51
2019-05-16T08:33:28.082Z,101520.15
2019-05-16T08:36:04.738Z,101523.42
2019-05-16T08:38:30.896Z,101524.78
2019-05-16T08:41:11.554Z,101522.52
2019-05-16T08:43:33.227Z,101510.29
2019-05-16T08:46:03.310Z,101511.81
2019-05-16T08:48:33.332Z,101511.77
2019-05-16T08:51:03.454Z,101505.34
2019-05-16T08:53:33.489Z,101505.90
2019-05-16T08:56:03.921Z,101508.98
2019-05-16T08:58:34.047Z,101507.73
2019-05-16T09:01:04.417Z,101505.38
2019-05-16T09:03:35.497Z,101504.09
2019-05-16T09:06:05.566Z,101498.66
2019-05-16T09:08:36.053Z,101490.41
2019-05-16T09:11:27.061Z,101488.48
2019-05-16T09:13:39.636Z,101474.69
2019-05-16T09:16:09.766Z,101465.67
2019-05-16T09:18:44.823Z,101463.47
2019-05-16T09:21:11.932Z,101457.37
2019-05-16T09:23:42.031Z,101450.73
2019-05-16T09:26:19.516Z,101447.61
2019-05-16T09:28:43.870Z,101437.64
2019-05-16T09:31:13.887Z,101435.75
2019-05-16T09:33:43.974Z,101432.34
2019-05-16T09:36:17.210Z,101430.88
2019-05-16T09:38:48.584Z,101429.83
2019-05-16T09:41:17.535Z,101429.47
2019-05-16T09:43:48.907Z,101427.84
2019-05-16T09:46:19.152Z,101425.17
2019-05-16T09:48:49.382Z,101426.78
2019-05-16T09:51:21.370Z,101428.96
2019-05-16T09:53:51.108Z,101430.98
2019-05-16T09:56:21.286Z,101425.19
2019-05-16T09:58:52.334Z,101430.84
2019-05-16T10:01:22.439Z,101427.80
2019-05-16T10:03:52.586Z,101431.91
2019-05-16T10:06:22.746Z,101429.38
2019-05-16T10:08:52.868Z,101420.53
2019-05-16T10:11:23.001Z,101409.55
2019-05-16T10:13:53.010Z,101405.36
2019-05-16T10:16:23.000Z,101403.36
2019-05-16T10:18:53.039Z,101400.66
2019-05-16T10:21:23.148Z,101397.05
2019-05-16T10:23:53.212Z,101395.41
2019-05-16T10:26:23.379Z,101392.70
2019-05-16T10:28:53.433Z,101393.79
2019-05-16T10:31:37.724Z,101396.02
2019-05-16T10:33:57.701Z,101393.50
2019-05-16T10:36:28.154Z,101386.17
2019-05-16T10:38:59.108Z,101386.91
2019-05-16T10:41:29.492Z,101387.22
2019-05-16T10:43:59.477Z,101388.39
2019-05-16T10:46:29.559Z,101381.04
2019-05-16T10:48:59.621Z,101379.63
2019-05-16T10:51:30.741Z,101382.09
2019-05-16T10:54:09.753Z,101388.16
2019-05-16T10:56:33.759Z,101378.75
2019-05-16T10:59:37.817Z,101372.44
2019-05-16T11:01:36.695Z,101379.36
2019-05-16T11:04:07.446Z,101370.73
2019-05-16T11:06:37.771Z,101371.91
2019-05-16T11:09:09.939Z,101370.44
2019-05-16T11:11:40.810Z,101363.95
2019-05-16T11:14:10.803Z,101361.83
2019-05-16T11:16:40.843Z,101354.30
2019-05-16T11:19:17.931Z,101345.64
2019-05-16T11:21:42.689Z,101346.19
2019-05-16T11:24:13.558Z,101342.13
2019-05-16T11:26:43.957Z,101335.52
2019-05-16T11:29:16.358Z,101345.52
2019-05-16T11:31:46.880Z,101345.08
2019-05-16T11:34:17.440Z,101349.92
2019-05-16T11:36:48.015Z,101341.95
2019-05-16T11:39:19.080Z,101340.06
2019-05-16T11:41:49.090Z,101330.74
2019-05-16T11:44:19.199Z,101328.20
2019-05-16T11:46:49.412Z,101333.27
2019-05-16T11:49:20.368Z,101323.47
2019-05-16T11:51:50.427Z,101326.39
2019-05-16T11:54:20.544Z,101317.88
2019-05-16T11:56:50.625Z,101313.04
2019-05-16T11:59:20.633Z,101311.61
2019-05-16T12:01:50.604Z,101310.90
2019-05-16T12:04:20.622Z,101314.69
2019-05-16T12:06:50.624Z,101311.11
2019-05-16T12:09:20.648Z,101310.46
2019-05-16T12:11:59.607Z,101300.90
2019-05-16T12:14:22.432Z,101305.09
2019-05-16T12:16:52.421Z,101292.70
2019-05-16T12:19:22.464Z,101295.00
2019-05-16T12:21:52.560Z,101292.09
2019-05-16T12:24:33.023Z,101277.28
2019-05-16T12:26:56.911Z,101279.05
2019-05-16T12:29:28.135Z,101279.82
2019-05-16T12:32:02.721Z,101277.21
2019-05-16T12:34:30.708Z,101271.05
2019-05-16T12:37:00.734Z,101273.73
2019-05-16T12:39:31.014Z,101270.92
2019-05-16T12:42:01.141Z,101273.53
2019-05-16T12:44:32.880Z,101267.91
2019-05-16T12:47:02.977Z,101263.50
2019-05-16T12:49:32.961Z,101269.62
2019-05-16T12:52:06.586Z,101264.44
2019-05-16T12:54:37.675Z,101262.02
2019-05-16T12:57:07.736Z,101254.30
2019-05-16T12:59:41.906Z,101257.97
2019-05-16T13:02:09.457Z,101245.61
2019-05-16T13:04:39.479Z,101237.28
2019-05-16T13:07:09.894Z,101243.43
2019-05-16T13:09:40.049Z,101234.27
2019-05-16T13:12:10.135Z,101238.98
2019-05-16T13:14:40.555Z,101227.69
2019-05-16T13:17:10.619Z,101229.12
2019-05-16T13:19:44.216Z,101224.37
2019-05-16T13:22:12.577Z,101216.51
2019-05-16T13:24:42.690Z,101221.39
2019-05-16T13:27:12.686Z,101210.67
2019-05-16T13:29:42.698Z,101215.53
2019-05-16T13:32:13.173Z,101206.98
2019-05-16T13:34:43.185Z,101199.95
2019-05-16T13:37:13.269Z,101196.40
2019-05-16T13:39:43.301Z,101190.82
2019-05-16T13:42:13.557Z,101189.41
2019-05-16T13:44:47.121Z,101186.80
2019-05-16T13:47:17.770Z,101189.55
2019-05-16T13:49:47.772Z,101187.02
2019-05-16T13:52:17.932Z,101178.06
2019-05-16T13:54:47.993Z,101169.88
2019-05-16T13:57:18.010Z,101168.90
2019-05-16T13:59:49.207Z,101167.77
2019-05-16T14:02:22.137Z,101162.05
2019-05-16T14:04:52.375Z,101161.83
2019-05-16T14:07:22.372Z,101152.09
2019-05-16T14:09:52.383Z,101150.67
2019-05-16T14:12:23.465Z,101144.80
2019-05-16T14:14:53.465Z,101142.59
2019-05-16T14:17:23.488Z,101133.90
2019-05-16T14:19:53.569Z,101124.18
2019-05-16T14:22:23.568Z,101121.92
2019-05-16T14:24:57.030Z,101118.92
2019-05-16T14:27:27.114Z,101108.92
2019-05-16T14:29:57.911Z,101108.05
2019-05-16T14:32:29.765Z,101113.27
2019-05-16T14:34:59.947Z,101106.70
2019-05-16T14:37:29.945Z,101107.19
2019-05-16T14:40:01.334Z,101103.70
2019-05-16T14:42:32.066Z,101106.08
2019-05-16T14:45:10.831Z,101104.14
2019-05-16T14:47:34.008Z,101107.11
2019-05-16T14:50:11.560Z,101100.07
2019-05-16T14:52:36.711Z,101103.66
2019-05-16T14:55:07.471Z,101105.00
2019-05-16T14:57:37.663Z,101104.53
2019-05-16T15:00:09.429Z,101105.80
2019-05-16T15:02:39.519Z,101097.97
2019-05-16T15:05:09.947Z,101098.61
2019-05-16T15:07:40.039Z,101095.08
2019-05-16T15:10:10.575Z,101087.30
2019-05-16T15:12:40.733Z,101091.56
2019-05-16T15:15:24.312Z,101092.31
2019-05-16T15:17:47.326Z,101083.11
2019-05-16T15:20:18.249Z,101085.56
2019-05-16T15:22:48.579Z,101081.68
2019-05-16T15:25:19.368Z,101074.68
2019-05-16T15:27:49.387Z,101085.39
2019-05-16T15:30:20.317Z,101075.27
2019-05-16T15:32:50.489Z,101066.00
2019-05-16T15:35:21.996Z,101062.27
2019-05-16T15:37:52.309Z,101067.05
2019-05-16T15:40:22.417Z,101065.96
2019-05-16T15:42:52.497Z,101064.05
2019-05-16T15:45:35.702Z,101055.83
2019-05-16T15:47:59.883Z,101062.35
2019-05-16T15:50:30.765Z,101058.83
2019-05-16T15:53:01.952Z,101059.92
2019-05-16T15:55:33.077Z,101055.52
2019-05-16T15:58:03.326Z,101052.34
2019-05-16T16:00:47.825Z,101051.64
2019-05-16T16:03:19.103Z,101056.64
2019-05-16T16:05:50.176Z,101056.59
2019-05-16T16:08:23.288Z,101044.50
2019-05-16T16:10:53.436Z,101043.55
2019-05-16T16:13:23.524Z,101053.91
2019-05-16T16:15:54.686Z,101044.95
2019-05-16T16:18:27.032Z,101049.41
2019-05-16T16:20:58.379Z,101049.06
2019-05-16T16:23:28.392Z,101041.40
2019-05-16T16:25:59.810Z,101031.75
2019-05-16T16:28:30.169Z,101032.14
2019-05-16T16:31:00.318Z,101034.15
2019-05-16T16:33:30.426Z,101039.28
2019-05-16T16:36:00.604Z,101039.64
2019-05-16T16:38:30.769Z,101036.64
2019-05-16T16:41:00.763Z,101040.94
2019-05-16T16:43:30.933Z,101042.51
2019-05-16T16:46:08.865Z,101036.59
2019-05-16T16:48:32.880Z,101037.12
2019-05-16T16:51:06.357Z,101027.97
2019-05-16T16:53:37.848Z,101030.58
2019-05-16T16:56:07.872Z,101031.89
2019-05-16T16:58:40.735Z,101031.89
2019-05-16T17:01:10.931Z,101034.94
2019-05-16T17:03:41.004Z,101027.89
2019-05-16T17:06:11.442Z,101032.20
2019-05-16T17:08:41.567Z,101031.24
2019-05-16T17:11:11.696Z,101034.59
2019-05-16T17:13:42.778Z,101033.77
2019-05-16T17:16:25.211Z,101032.38
2019-05-16T17:18:44.593Z,101032.85
2019-05-16T17:21:16.882Z,101036.16
2019-05-16T17:23:46.600Z,101031.34
2019-05-16T17:26:16.819Z,101037.91
2019-05-16T17:28:47.353Z,101041.04
2019-05-16T17:31:17.631Z,101038.99
2019-05-16T17:33:47.725Z,101036.25
2019-05-16T17:36:17.897Z,101045.86
2019-05-16T17:38:47.988Z,101045.86
2019-05-16T17:41:18.011Z,101038.77
2019-05-16T17:43:48.070Z,101040.08
2019-05-16T17:46:18.325Z,101042.20
2019-05-16T17:48:48.494Z,101040.47
2019-05-16T17:51:20.354Z,101042.77
2019-05-16T17:53:50.439Z,101043.13
2019-05-16T17:56:21.990Z,101049.70
2019-05-16T17:58:52.279Z,101049.57
2019-05-16T18:01:23.883Z,101047.48
2019-05-16T18:03:54.109Z,101046.22
2019-05-16T18:06:24.288Z,101047.87
2019-05-16T18:08:54.359Z,101046.95
2019-05-16T18:11:26.634Z,101046.86
2019-05-16T18:13:57.028Z,101047.34
2019-05-16T18:16:27.250Z,101046.60
2019-05-16T18:18:57.613Z,101046.13
2019-05-16T18:21:27.719Z,101040.55
2019-05-16T18:23:57.745Z,101045.25
2019-05-16T18:26:29.494Z,101045.38
2019-05-16T18:28:59.581Z,101041.86
2019-05-16T18:31:32.159Z,101051.66
2019-05-16T18:34:02.503Z,101047.00
2019-05-16T18:36:32.582Z,101043.99
2019-05-16T18:39:06.421Z,101045.64
2019-05-16T18:41:36.618Z,101056.09
2019-05-16T18:44:06.953Z,101048.21
2019-05-16T18:46:37.067Z,101048.99
2019-05-16T18:49:07.357Z,101052.39
2019-05-16T18:51:39.648Z,101047.73
2019-05-16T18:54:09.842Z,101041.12
2019-05-16T18:56:39.958Z,101039.03
2019-05-16T18:59:10.108Z,101039.42
2019-05-16T19:01:40.222Z,101042.12
2019-05-16T19:04:13.269Z,101041.12
2019-05-16T19:06:42.184Z,101041.47
2019-05-16T19:09:12.409Z,101043.77
2019-05-16T19:11:42.590Z,101046.78
2019-05-16T19:14:12.764Z,101038.13
2019-05-16T19:16:42.891Z,101036.03
2019-05-16T19:19:12.973Z,101045.56
2019-05-16T19:21:44.151Z,101040.42
2019-05-16T19:24:16.416Z,101039.98
2019-05-16T19:26:47.092Z,101036.98
2019-05-16T19:29:17.533Z,101039.12
2019-05-16T19:31:50.372Z,101034.69
2019-05-16T19:34:19.481Z,101042.98
2019-05-16T19:36:49.520Z,101035.55
2019-05-16T19:39:19.606Z,101039.47
2019-05-16T19:41:49.704Z,101037.77
2019-05-16T19:44:19.771Z,101033.77
2019-05-16T19:46:49.749Z,101038.59
2019-05-16T19:49:19.783Z,101030.37
2019-05-16T19:51:49.818Z,101033.37
2019-05-16T19:54:20.039Z,101032.94
2019-05-16T19:56:50.236Z,101037.28
2019-05-16T19:59:20.320Z,101036.50
2019-05-16T20:01:50.793Z,101037.81
2019-05-16T20:04:20.905Z,101036.42
2019-05-16T20:06:51.075Z,101043.83
2019-05-16T20:09:21.171Z,101036.91
2019-05-16T20:11:51.188Z,101036.50
2019-05-16T20:14:24.360Z,101030.86
2019-05-16T20:16:56.672Z,101034.20
2019-05-16T20:19:26.949Z,101030.72
2019-05-16T20:21:58.127Z,101030.77
2019-05-16T20:24:28.314Z,101032.98
2019-05-16T20:26:58.394Z,101028.11
2019-05-16T20:29:31.543Z,101025.16
2019-05-16T20:32:01.580Z,101028.59
2019-05-16T20:34:31.604Z,101033.06
2019-05-16T20:37:01.638Z,101028.59
2019-05-16T20:39:33.187Z,101023.84
2019-05-16T20:42:03.214Z,101027.42
2019-05-16T20:44:33.242Z,101027.37
2019-05-16T20:47:03.258Z,101027.50
2019-05-16T20:49:33.452Z,101023.06
2019-05-16T20:52:03.596Z,101020.50
2019-05-16T20:54:33.875Z,101026.41
2019-05-16T20:57:06.625Z,101025.54
2019-05-16T20:59:35.962Z,101019.22
2019-05-16T21:02:07.268Z,101016.09
2019-05-16T21:04:37.594Z,101022.48
2019-05-16T21:07:11.058Z,101018.31
2019-05-16T21:09:39.572Z,101019.27
2019-05-16T21:12:09.599Z,101019.53
2019-05-16T21:14:39.623Z,101024.84
2019-05-16T21:17:10.090Z,101027.41
2019-05-16T21:19:40.161Z,101019.27
2019-05-16T21:22:13.581Z,101010.88
2019-05-16T21:24:43.617Z,101016.83
2019-05-16T21:27:13.699Z,101015.61
2019-05-16T21:29:47.152Z,101005.55
2019-05-16T21:32:17.323Z,101008.59
2019-05-16T21:34:47.367Z,101001.09
2019-05-16T21:37:20.347Z,100997.80
2019-05-16T21:39:51.815Z,100996.02
2019-05-16T21:42:21.900Z,100992.15
2019-05-16T21:44:52.099Z,100986.73
2019-05-16T21:47:27.570Z,100986.06
2019-05-16T21:49:57.105Z,100989.39
2019-05-16T21:52:28.893Z,100994.00
2019-05-16T21:54:59.033Z,100990.31
2019-05-16T21:57:30.109Z,100986.97
2019-05-16T22:00:03.111Z,100991.96
2019-05-16T22:02:38.052Z,100982.57
2019-05-16T22:05:08.699Z,100979.66
2019-05-16T22:07:40.292Z,100989.19
2019-05-16T22:10:11.141Z,100978.95
2019-05-16T22:12:41.381Z,100983.39
2019-05-16T22:15:11.825Z,100977.39
2019-05-16T22:17:43.505Z,100964.29
2019-05-16T22:20:16.679Z,100972.99
2019-05-16T22:22:47.137Z,100974.64
2019-05-16T22:25:17.346Z,100971.46
2019-05-16T22:27:48.941Z,100966.46
2019-05-16T22:30:19.710Z,100962.60
2019-05-16T22:32:50.054Z,100964.44
2019-05-16T22:35:21.472Z,100963.63
2019-05-16T22:37:55.539Z,100963.33
2019-05-16T22:40:27.123Z,100961.15
2019-05-16T22:42:58.775Z,100964.69
2019-05-16T22:45:29.025Z,100952.05
2019-05-16T22:47:59.064Z,100958.53
2019-05-16T22:50:29.072Z,100945.92
2019-05-16T22:52:59.091Z,100949.50
2019-05-16T22:55:29.238Z,100947.31
2019-05-16T22:58:02.088Z,100944.27
2019-05-16T23:00:33.593Z,100941.76
2019-05-16T23:03:03.621Z,100943.11
2019-05-16T23:05:33.723Z,100942.72
2019-05-16T23:08:08.918Z,100942.72
2019-05-16T23:10:36.781Z,100935.32
2019-05-16T23:13:07.326Z,100936.19
2019-05-16T23:15:37.625Z,100936.62
2019-05-16T23:18:07.703Z,100939.23
2019-05-16T23:20:37.729Z,100940.11
2019-05-16T23:23:07.762Z,100938.80
2019-05-16T23:25:37.790Z,100939.63
2019-05-16T23:28:09.408Z,100937.02
2019-05-16T23:30:39.418Z,100935.72
2019-05-16T23:33:12.493Z,100933.92
2019-05-16T23:35:43.640Z,100927.00
2019-05-16T23:38:19.249Z,100924.39
2019-05-16T23:40:46.905Z,100927.00
2019-05-16T23:43:17.030Z,100923.56
2019-05-16T23:45:47.060Z,100917.04
2019-05-16T23:48:18.666Z,100918.34
2019-05-16T23:50:48.767Z,100915.69
2019-05-16T23:53:18.767Z,100915.73
2019-05-16T23:55:48.796Z,100912.21
2019-05-16T23:58:18.822Z,100915.73
